Russiaville, Indiana
Current Conditions -  °F | °C
As of 11:55 AM on Monday 22 Dec 2014 (Local Time) from KOKK Reporting Station
Overcast Overcast  
Wind Chill: 30°   Ceiling: 900
Heat Index: 36°   Visibility: 8mi
Dew Point: 30°   Wind: 7mph
Humidity: 81%   Direction: 130°SE
Pressure: 29.9"   Gusts: NA
Location:  40.42°N, 86.27°W
Report Text: KOKK 221655Z AUTO 13006KT 8SM OVC009 02/M01 A2990 RMK AO1
Loading
Personal Weather Stations






























Interactive Weather Map New forecast layout! Learn more

10-Day Weather Forecast

Advertisements
Track Severe Weather on mobile